Vremea acum in Curtici - Romania

Vrei sa afli care e starea vremii acum in Arad - Romania? Dorim sa iti furnizam starea vremii pentru Arad - Romania. Starea vremii Arad - Romania pentru astazi.

Vremea acum in Curtici

Temperatura: 18 °C

Se simte ca: 18 °C
Innorat: 0 %
Precipitatii: 0 %
Presiune atmosferica: 1022 hPa
Umiditate: 94%
Vizibilitate: 10 km
Vantul bate din ENE cu 6.1 km/h

Evolutia vremii in Curtici pe ore

Ora: 11:00
Parțial noros
Temperatura: 30.4°C
Sansa de precipitatii: 0%
Ora Descriere Temp Se simte Precipitatii Umiditate Vant
00:00Ploi pe porţiuni în apropiere23.4°24.7°80%80%NNE 12.6 KM/H
01:00Ploi pe porţiuni în apropiere21.8°21.8°77%81%NNE 11.2 KM/H
02:00Ploi pe porţiuni în apropiere20.2°20.2°75%81%NNE 9.4 KM/H
03:00Parțial noros19.8°19.8°50%82%NNE 9.4 KM/H
04:00Ploi pe porţiuni în apropiere19.4°19.4°25%83%NNE 9 KM/H
05:00Parțial noros19°19°0%84%NNE 9 KM/H
06:00Parțial noros20.2°20.2°0%79%NNE 8.3 KM/H
07:00Parțial noros21.5°21.5°0%74%NE 7.2 KM/H
08:00Parțial noros22.7°24.8°0%68%NE 6.5 KM/H
09:00Parțial noros25.3°26.8°0%59%ESE 5 KM/H
10:00Parțial noros27.8°28.8°0%50%S 3.6 KM/H
11:00Parțial noros30.4°30.8°0%41%WSW 2.2 KM/H
12:00Parțial noros31.5°31.8°0%38%S 3.6 KM/H
13:00Parțial noros32.6°32.8°0%35%E 5 KM/H
14:00Parțial noros33.7°33.8°0%32%N 6.5 KM/H
15:00Parțial noros33.8°33.7°0%31%ESE 6.8 KM/H
16:00Parțial noros33.8°33.6°0%30%SW 6.8 KM/H
17:00Parțial noros33.9°33.5°0%29%NNW 7.2 KM/H
18:00Parțial noros32.9°33.3°0%33%SW 9.4 KM/H
19:00Parțial noros31.9°33.1°0%36%ESE 11.2 KM/H
20:00Parțial noros30.9°32.9°0%40%N 13.3 KM/H
21:00Parțial noros30.2°32.2°0%46%NNE 12.6 KM/H
22:00Parțial noros29.6°31.6°0%51%NNE 11.9 KM/H
23:00Parțial noros28.9°30.9°0%56%NE 11.2 KM/H